Time;durP1;ratioP1;P1;durP2;ratioP2;P2;SDS_P1;SDS_P2;PMS_P1;PMS_P2;Temp;Humidity;BMP_temperature;BMP_pressure;BME280_temperature;BME280_humidity;BME280_pressure;Samples;Min_cycle;Max_cycle;Signal;HPM_P1;HPM_P2
2022/06/18 00:00:18;;;;;;;22.15;9.10;;;20.10;71.40;;;;;;5135112;27;20043;-82
2022/06/18 00:02:44;;;;;;;9.30;8.48;;;20.10;71.50;;;;;;5117640;27;20039;-81
2022/06/18 00:05:12;;;;;;;9.50;8.60;;;20.10;72.00;;;;;;5135212;27;20135;-82
2022/06/18 00:07:42;;;;;;;11.00;9.15;;;20.00;72.10;;;;;;5118244;27;20039;-82
2022/06/18 00:10:12;;;;;;;11.32;8.02;;;20.00;72.00;;;;;;5135028;27;20100;-83
2022/06/18 00:15:31;;;;;;;11.10;8.77;;;20.00;71.70;;;;;;5120807;27;20470;-81
2022/06/18 00:17:57;;;;;;;10.00;9.00;;;19.90;71.70;;;;;;5135009;27;20107;-83
2022/06/18 00:20:25;;;;;;;11.02;9.70;;;19.90;71.60;;;;;;5117702;27;20454;-83
2022/06/18 00:22:57;;;;;;;11.90;9.75;;;19.90;71.50;;;;;;5117698;27;20122;-81
2022/06/18 00:25:35;;;;;;;10.82;9.70;;;19.90;71.30;;;;;;5117007;27;20560;-82
2022/06/18 00:28:13;;;;;;;11.38;9.63;;;19.80;71.50;;;;;;5117612;27;20095;-81
2022/06/18 00:30:39;;;;;;;12.32;9.40;;;19.80;71.60;;;;;;5134721;27;20122;-81
2022/06/18 00:33:06;;;;;;;11.88;10.30;;;19.70;71.30;;;;;;5117512;27;20127;-83
2022/06/18 00:35:32;;;;;;;13.70;9.85;;;19.70;71.20;;;;;;5117574;27;20035;-81
2022/06/18 00:38:00;;;;;;;17.15;11.50;;;19.70;71.10;;;;;;5117615;27;20039;-81
2022/06/18 00:40:38;;;;;;;11.88;10.27;;;19.70;71.30;;;;;;5134446;27;20043;-82
2022/06/18 00:43:18;;;;;;;13.18;10.75;;;19.70;71.30;;;;;;5134332;27;20112;-82
2022/06/18 00:45:44;;;;;;;13.15;11.05;;;19.70;71.60;;;;;;5117541;27;20031;-82
2022/06/18 00:48:31;;;;;;;12.07;10.35;;;19.70;71.60;;;;;;5134455;27;20080;-82
2022/06/18 00:51:11;;;;;;;15.65;11.05;;;19.70;71.70;;;;;;5134333;27;20121;-82
2022/06/18 00:53:43;;;;;;;17.02;10.80;;;19.60;72.10;;;;;;5134729;27;20047;-81
2022/06/18 00:56:12;;;;;;;13.40;11.73;;;19.60;72.10;;;;;;5134377;27;20039;-81
2022/06/18 00:58:49;;;;;;;13.02;11.50;;;19.50;72.20;;;;;;5117114;27;20035;-81
2022/06/18 01:01:31;;;;;;;15.82;12.18;;;19.40;72.80;;;;;;5117459;27;20047;-81
2022/06/18 01:03:57;;;;;;;12.80;11.48;;;19.30;73.20;;;;;;5117527;27;20134;-82
2022/06/18 01:06:30;;;;;;;14.13;12.23;;;19.30;73.30;;;;;;5134757;27;20104;-81
2022/06/18 01:09:06;;;;;;;13.90;12.55;;;19.20;73.60;;;;;;5117314;27;20035;-82
2022/06/18 01:11:35;;;;;;;15.63;13.88;;;19.20;73.80;;;;;;5116842;27;20042;-81
2022/06/18 01:14:05;;;;;;;14.70;13.30;;;19.20;74.00;;;;;;5134382;27;20394;-81
2022/06/18 01:16:33;;;;;;;16.05;13.63;;;19.20;74.40;;;;;;5133886;27;20047;-81
2022/06/18 01:19:00;;;;;;;17.52;14.57;;;19.10;74.60;;;;;;5116410;27;20043;-83
2022/06/18 01:21:35;;;;;;;18.70;14.38;;;19.10;75.00;;;;;;5116663;27;20129;-82
2022/06/18 01:24:32;;;;;;;18.88;14.45;;;19.00;75.70;;;;;;5133383;27;20111;-81
2022/06/18 01:26:59;;;;;;;15.82;13.63;;;18.90;76.00;;;;;;5133785;27;20106;-82
2022/06/18 01:29:25;;;;;;;15.40;13.60;;;18.90;76.50;;;;;;5133624;27;20547;-82
2022/06/18 01:31:51;;;;;;;17.40;13.43;;;18.90;77.20;;;;;;5099730;27;20035;-82
2022/06/18 01:34:20;;;;;;;16.60;14.80;;;18.80;77.40;;;;;;5116499;27;20043;-81
2022/06/18 01:36:46;;;;;;;15.27;12.93;;;18.80;77.90;;;;;;5099563;28;20126;-82
2022/06/18 01:39:22;;;;;;;16.00;14.07;;;18.70;78.30;;;;;;5116126;27;20043;-82
2022/06/18 01:41:54;;;;;;;15.88;14.27;;;18.70;78.60;;;;;;5133408;27;20035;-82
2022/06/18 01:44:28;;;;;;;21.20;14.63;;;18.60;79.00;;;;;;5133186;27;20039;-81
2022/06/18 01:47:01;;;;;;;19.45;14.43;;;18.60;79.00;;;;;;5116177;27;20498;-81
2022/06/18 01:49:33;;;;;;;17.93;14.20;;;18.50;79.30;;;;;;5116241;27;20035;-82
2022/06/18 01:52:01;;;;;;;18.08;15.57;;;18.50;79.70;;;;;;5133401;27;20050;-81
2022/06/18 01:54:35;;;;;;;20.10;15.25;;;18.50;79.80;;;;;;5133107;27;20039;-81
2022/06/18 01:57:05;;;;;;;20.63;13.75;;;18.50;80.00;;;;;;5116471;28;20043;-82
2022/06/18 01:59:43;;;;;;;18.98;15.40;;;18.50;80.30;;;;;;5133450;28;20042;-81
2022/06/18 02:02:09;;;;;;;18.42;15.32;;;18.50;80.40;;;;;;5116055;28;20035;-82
2022/06/18 02:04:35;;;;;;;18.00;13.95;;;18.50;80.70;;;;;;5098952;28;20043;-83
2022/06/18 02:07:05;;;;;;;23.60;17.00;;;18.50;80.70;;;;;;5099079;28;20066;-82
2022/06/18 02:09:50;;;;;;;18.58;16.55;;;18.40;80.70;;;;;;5116031;28;20080;-81
2022/06/18 02:12:27;;;;;;;26.05;17.75;;;18.40;80.90;;;;;;5115977;28;20031;-81
2022/06/18 02:14:57;;;;;;;18.83;15.68;;;18.30;81.10;;;;;;5133318;28;20561;-82
2022/06/18 02:17:25;;;;;;;19.08;14.88;;;18.20;81.20;;;;;;5133272;28;20147;-82
2022/06/18 02:19:57;;;;;;;22.17;18.42;;;18.20;81.60;;;;;;5115907;28;20088;-82
2022/06/18 02:22:29;;;;;;;27.38;16.65;;;18.20;81.40;;;;;;5132868;28;20100;-81
2022/06/18 02:24:56;;;;;;;23.83;17.10;;;18.20;82.20;;;;;;5115702;28;20047;-81
2022/06/18 02:27:23;;;;;;;25.55;18.13;;;18.10;81.60;;;;;;5116018;28;20475;-81
2022/06/18 02:29:49;;;;;;;20.42;14.40;;;18.00;81.80;;;;;;5132754;28;20035;-81
2022/06/18 02:32:31;;;;;;;21.92;16.40;;;18.00;81.80;;;;;;5132866;28;20095;-82
2022/06/18 02:34:57;;;;;;;25.67;17.17;;;18.00;81.90;;;;;;5116021;28;20048;-81
2022/06/18 02:37:29;;;;;;;24.00;15.30;;;18.00;82.00;;;;;;5133073;28;20031;-81
2022/06/18 02:40:01;;;;;;;23.50;16.92;;;18.00;82.10;;;;;;5115701;28;20032;-83
2022/06/18 02:42:32;;;;;;;18.15;15.50;;;18.00;81.80;;;;;;5115708;28;20082;-81
2022/06/18 02:44:58;;;;;;;19.77;15.75;;;18.00;81.80;;;;;;5115834;28;20398;-81
2022/06/18 02:47:24;;;;;;;24.05;17.77;;;17.90;81.90;;;;;;5098812;28;20123;-82
2022/06/18 02:50:03;;;;;;;23.20;17.33;;;17.90;81.90;;;;;;5101620;27;20039;-81
2022/06/18 02:52:34;;;;;;;19.73;16.02;;;17.90;82.10;;;;;;5136842;27;20049;-81
2022/06/18 02:55:20;;;;;;;22.70;16.08;;;17.80;82.30;;;;;;5119459;27;20038;-81
2022/06/18 02:57:52;;;;;;;27.02;18.05;;;17.80;82.20;;;;;;5108513;27;20040;-82
2022/06/18 03:00:18;;;;;;;28.17;15.93;;;17.70;82.50;;;;;;5119411;27;20509;-81
2022/06/18 03:02:44;;;;;;;26.63;18.65;;;17.70;82.40;;;;;;5136207;27;20035;-81
2022/06/18 03:05:21;;;;;;;29.45;18.90;;;17.70;82.50;;;;;;5102027;27;20054;-82
2022/06/18 03:07:47;;;;;;;31.25;19.33;;;17.70;82.70;;;;;;5118870;27;20046;-81
2022/06/18 03:12:59;;;;;;;38.47;20.48;;;17.60;82.80;;;;;;5121776;27;20483;-81
2022/06/18 03:15:25;;;;;;;26.80;20.88;;;17.60;82.90;;;;;;5118867;27;20039;-82
2022/06/18 03:17:51;;;;;;;28.38;19.65;;;17.50;83.00;;;;;;5119250;27;20437;-81
2022/06/18 03:20:20;;;;;;;30.40;20.08;;;17.50;83.10;;;;;;5119267;27;20070;-81
2022/06/18 03:22:46;;;;;;;27.40;19.25;;;17.50;83.30;;;;;;5135832;27;20112;-81
2022/06/18 03:25:12;;;;;;;39.33;21.48;;;17.50;83.30;;;;;;5119051;27;20435;-81
2022/06/18 03:27:38;;;;;;;29.42;19.83;;;17.40;83.40;;;;;;5084957;27;20077;-81
2022/06/18 03:30:05;;;;;;;27.10;20.48;;;17.40;83.40;;;;;;5101850;27;20035;-81
2022/06/18 03:32:31;;;;;;;24.67;19.55;;;17.40;83.50;;;;;;5119311;27;20087;-82
2022/06/18 03:34:57;;;;;;;29.23;21.40;;;17.40;83.60;;;;;;5118868;27;20065;-82
2022/06/18 03:37:23;;;;;;;27.02;18.60;;;17.30;83.60;;;;;;5107901;27;20039;-81
2022/06/18 03:39:48;;;;;;;30.60;18.55;;;17.40;83.80;;;;;;5122314;27;20088;-81
2022/06/18 03:42:14;;;;;;;24.58;20.13;;;17.40;83.70;;;;;;5118543;27;20043;-82
2022/06/18 03:44:40;;;;;;;22.90;19.50;;;17.40;83.60;;;;;;5101390;27;20035;-81
2022/06/18 03:47:06;;;;;;;28.80;19.00;;;17.40;83.60;;;;;;5084502;27;20513;-82
2022/06/18 03:49:33;;;;;;;30.20;18.80;;;17.40;83.70;;;;;;5118889;27;20118;-81
2022/06/18 03:52:02;;;;;;;29.60;18.35;;;17.40;83.70;;;;;;5101968;27;20042;-81
2022/06/18 03:54:28;;;;;;;30.08;19.30;;;17.40;83.70;;;;;;5135672;27;20172;-82
2022/06/18 03:56:54;;;;;;;29.48;19.95;;;17.40;83.70;;;;;;5135295;27;20126;-81
2022/06/18 03:59:21;;;;;;;20.63;16.65;;;17.40;83.70;;;;;;5118535;27;20122;-81
2022/06/18 04:01:46;;;;;;;28.00;19.45;;;17.40;83.80;;;;;;5134722;27;20047;-81
2022/06/18 04:04:13;;;;;;;26.60;18.52;;;17.40;83.70;;;;;;5117961;27;20636;-82
2022/06/18 04:06:40;;;;;;;23.60;18.50;;;17.40;83.70;;;;;;5135251;27;20046;-81
2022/06/18 04:09:07;;;;;;;27.75;18.00;;;17.40;83.70;;;;;;5118109;27;20028;-81
2022/06/18 04:11:33;;;;;;;23.85;15.27;;;17.50;83.60;;;;;;5117976;27;20042;-81
2022/06/18 04:13:59;;;;;;;32.30;19.25;;;17.50;83.60;;;;;;5117599;27;20039;-82
2022/06/18 04:16:26;;;;;;;23.73;17.95;;;17.50;83.40;;;;;;5117921;27;20038;-80
2022/06/18 04:18:52;;;;;;;28.23;19.02;;;17.50;83.30;;;;;;5134883;27;20517;-80
2022/06/18 04:21:17;;;;;;;24.15;18.27;;;17.50;83.50;;;;;;5135210;27;20078;-81
2022/06/18 04:23:44;;;;;;;22.65;17.23;;;17.50;83.50;;;;;;5134511;27;20497;-81
2022/06/18 04:26:12;;;;;;;31.50;18.13;;;17.50;83.60;;;;;;5134902;27;20047;-81
2022/06/18 04:28:38;;;;;;;26.65;17.70;;;17.50;83.60;;;;;;5117470;27;20042;-81
2022/06/18 04:31:05;;;;;;;21.80;16.02;;;17.40;83.60;;;;;;5100679;27;20046;-81
2022/06/18 04:33:31;;;;;;;26.45;16.73;;;17.50;83.60;;;;;;5100774;27;20066;-81
2022/06/18 04:35:58;;;;;;;21.27;14.70;;;17.50;83.70;;;;;;5117379;27;20050;-82
2022/06/18 04:38:24;;;;;;;26.80;14.63;;;17.50;83.70;;;;;;5134527;27;20050;-81
2022/06/18 04:40:51;;;;;;;23.25;15.32;;;17.50;83.50;;;;;;5100222;27;20043;-81
2022/06/18 04:43:16;;;;;;;23.92;15.20;;;17.60;83.40;;;;;;5117174;27;20050;-81
2022/06/18 04:45:42;;;;;;;20.13;13.10;;;17.60;83.40;;;;;;5117428;27;20031;-81
2022/06/18 04:48:12;;;;;;;24.10;15.48;;;17.60;83.50;;;;;;5117382;27;20479;-81
2022/06/18 04:50:39;;;;;;;22.15;15.35;;;17.70;83.30;;;;;;5117296;27;20474;-81
2022/06/18 04:53:07;;;;;;;25.33;14.40;;;17.70;83.30;;;;;;5117326;27;20043;-80
2022/06/18 04:55:33;;;;;;;23.52;15.98;;;17.70;83.20;;;;;;5133915;27;20126;-81
2022/06/18 04:57:59;;;;;;;22.13;15.48;;;17.80;83.20;;;;;;5117168;27;20077;-76
2022/06/18 05:00:25;;;;;;;23.13;14.95;;;17.80;83.10;;;;;;5104859;27;20070;-79
2022/06/18 05:02:51;;;;;;;22.17;14.50;;;17.90;83.10;;;;;;5124533;27;20096;-77
2022/06/18 05:05:21;;;;;;;23.60;15.55;;;17.90;82.90;;;;;;5119237;27;20048;-78
2022/06/18 05:07:47;;;;;;;15.25;11.77;;;18.00;82.80;;;;;;5118414;27;20075;-79
2022/06/18 05:10:13;;;;;;;20.42;15.30;;;18.00;82.80;;;;;;5102274;27;20067;-79
2022/06/18 05:12:39;;;;;;;20.77;14.73;;;18.00;82.60;;;;;;5103903;27;20039;-79
2022/06/18 05:15:12;;;;;;;23.00;15.38;;;18.00;82.80;;;;;;5101914;27;20035;-79
2022/06/18 05:17:43;;;;;;;26.57;15.67;;;18.10;82.70;;;;;;5119509;27;20039;-77
2022/06/18 05:20:16;;;;;;;17.40;12.95;;;18.20;82.90;;;;;;5121070;27;20682;-77
2022/06/18 05:22:42;;;;;;;24.25;13.95;;;18.20;82.80;;;;;;5121090;27;20046;-77
2022/06/18 05:25:09;;;;;;;15.32;9.88;;;18.30;82.80;;;;;;5093849;27;20051;-79
2022/06/18 05:27:36;;;;;;;17.30;9.90;;;18.40;82.90;;;;;;5119430;27;20050;-78
2022/06/18 05:30:04;;;;;;;18.92;10.07;;;18.40;82.70;;;;;;5119495;27;20071;-78
2022/06/18 05:32:30;;;;;;;16.17;8.80;;;18.50;82.50;;;;;;5103557;27;20513;-78
2022/06/18 05:34:55;;;;;;;16.23;7.70;;;18.60;82.60;;;;;;5102112;27;20070;-76
2022/06/18 05:37:26;;;;;;;12.52;6.90;;;18.60;82.40;;;;;;5101951;27;20046;-79
2022/06/18 05:39:52;;;;;;;8.93;6.18;;;18.70;82.10;;;;;;5100353;27;20047;-80
2022/06/18 05:42:18;;;;;;;12.48;7.05;;;18.90;81.70;;;;;;5121580;27;20099;-77
2022/06/18 05:44:44;;;;;;;13.77;6.95;;;19.00;81.40;;;;;;5116841;27;20127;-78
2022/06/18 05:47:26;;;;;;;15.23;7.90;;;19.00;81.40;;;;;;5099016;27;20044;-77
2022/06/18 05:49:52;;;;;;;12.38;7.03;;;19.10;81.40;;;;;;5118134;27;20133;-80
2022/06/18 05:52:21;;;;;;;15.43;7.55;;;19.10;81.30;;;;;;5119517;27;20039;-80
2022/06/18 05:54:47;;;;;;;15.23;7.60;;;19.10;81.30;;;;;;5116801;27;20046;-78
2022/06/18 05:57:14;;;;;;;13.48;7.80;;;19.10;81.30;;;;;;5100620;28;20597;-78
2022/06/18 05:59:39;;;;;;;12.27;7.63;;;19.10;81.50;;;;;;5098104;28;20425;-78
2022/06/18 06:02:06;;;;;;;10.40;6.15;;;19.20;81.90;;;;;;5120282;28;20035;-77
2022/06/18 06:04:32;;;;;;;14.43;7.20;;;19.30;81.70;;;;;;5120206;28;20043;-78
2022/06/18 06:06:58;;;;;;;12.85;6.80;;;19.30;81.20;;;;;;5099317;28;20043;-77
2022/06/18 06:12:10;;;;;;;12.00;6.15;;;19.40;80.90;;;;;;5115977;28;20066;-79
2022/06/18 06:14:38;;;;;;;14.88;7.13;;;19.40;80.80;;;;;;5113640;28;20044;-79
2022/06/18 06:17:04;;;;;;;11.57;5.78;;;19.50;80.80;;;;;;5116242;28;20054;-79
2022/06/18 06:19:30;;;;;;;17.08;6.30;;;19.50;80.70;;;;;;5097998;28;20111;-79
2022/06/18 06:21:55;;;;;;;9.48;5.38;;;19.60;80.60;;;;;;5117199;28;20047;-79
2022/06/18 06:24:21;;;;;;;12.38;4.72;;;19.60;80.30;;;;;;5104758;27;20063;-78
2022/06/18 06:26:47;;;;;;;12.60;4.90;;;19.60;80.10;;;;;;5106359;27;20059;-78
2022/06/18 06:29:15;;;;;;;10.05;4.72;;;19.70;80.10;;;;;;5079042;27;20546;-78
2022/06/18 06:31:41;;;;;;;10.35;4.32;;;19.80;79.90;;;;;;5123350;27;20054;-79
2022/06/18 06:34:07;;;;;;;8.68;4.00;;;19.80;79.80;;;;;;5123152;27;20047;-78
2022/06/18 06:36:32;;;;;;;6.80;3.55;;;19.90;79.90;;;;;;5087267;27;20039;-79
2022/06/18 06:39:01;;;;;;;9.77;4.10;;;19.90;80.10;;;;;;5120322;27;20062;-77
2022/06/18 06:41:28;;;;;;;8.73;4.90;;;19.90;80.00;;;;;;5105109;27;20051;-77
2022/06/18 06:43:54;;;;;;;9.82;4.30;;;20.00;80.20;;;;;;5122232;27;20073;-78
2022/06/18 06:46:20;;;;;;;6.05;4.13;;;20.00;80.40;;;;;;5121158;27;20043;-79
2022/06/18 06:48:47;;;;;;;6.07;2.63;;;20.10;80.40;;;;;;5124658;27;20092;-77
2022/06/18 06:51:16;;;;;;;4.05;2.38;;;20.20;80.20;;;;;;5106508;27;20490;-79
2022/06/18 06:53:41;;;;;;;4.30;2.38;;;20.20;79.50;;;;;;5119482;27;20051;-78
2022/06/18 06:58:56;;;;;;;2.75;1.52;;;20.20;79.00;;;;;;5120962;27;20090;-78
2022/06/18 07:01:22;;;;;;;2.90;1.40;;;20.30;79.00;;;;;;5120755;27;20071;-78
2022/06/18 07:03:48;;;;;;;4.68;1.77;;;20.30;78.60;;;;;;5125915;27;20045;-79
2022/06/18 07:06:16;;;;;;;3.92;1.48;;;20.40;78.40;;;;;;5119474;27;20039;-78
2022/06/18 07:08:42;;;;;;;2.72;1.27;;;20.50;78.30;;;;;;5103511;27;20035;-78
2022/06/18 07:11:08;;;;;;;2.72;1.35;;;20.50;78.20;;;;;;5103551;27;20395;-78
2022/06/18 07:13:33;;;;;;;3.60;1.42;;;20.60;77.90;;;;;;5136050;27;20039;-79
2022/06/18 07:15:59;;;;;;;4.03;1.75;;;20.60;77.70;;;;;;5136020;27;20072;-78
2022/06/18 07:18:31;;;;;;;3.05;1.45;;;20.70;77.50;;;;;;5135896;27;20179;-78
2022/06/18 07:20:58;;;;;;;4.45;1.45;;;20.80;77.00;;;;;;5135899;27;20042;-79
2022/06/18 07:23:24;;;;;;;2.83;1.30;;;20.80;76.70;;;;;;5135856;27;20051;-78
2022/06/18 07:25:49;;;;;;;2.60;1.40;;;20.90;76.30;;;;;;5118690;27;20046;-79
2022/06/18 07:28:16;;;;;;;2.85;1.08;;;20.90;76.20;;;;;;5101786;27;20072;-78
2022/06/18 07:30:42;;;;;;;2.08;1.45;;;20.90;76.30;;;;;;5136127;27;20039;-79
2022/06/18 07:33:13;;;;;;;2.78;1.27;;;21.00;75.90;;;;;;5135858;27;20074;-77
2022/06/18 07:35:38;;;;;;;3.67;1.88;;;21.00;75.60;;;;;;5117754;27;20460;-78
2022/06/18 07:38:04;;;;;;;2.58;1.42;;;21.10;75.60;;;;;;5101581;27;20085;-78
2022/06/18 07:40:36;;;;;;;4.07;1.65;;;21.20;75.70;;;;;;5118563;27;20126;-78
2022/06/18 07:43:06;;;;;;;3.97;1.70;;;21.30;75.50;;;;;;5135557;27;20047;-79
2022/06/18 07:45:32;;;;;;;2.90;1.70;;;21.40;75.20;;;;;;5118618;27;20039;-79
2022/06/18 07:48:00;;;;;;;4.68;1.63;;;21.40;74.80;;;;;;5118771;27;20043;-78
2022/06/18 07:50:26;;;;;;;3.97;1.55;;;21.40;74.70;;;;;;5135826;27;20391;-78
2022/06/18 07:52:52;;;;;;;4.22;1.65;;;21.40;74.60;;;;;;5135444;27;20035;-78
2022/06/18 07:55:24;;;;;;;3.53;1.52;;;21.40;74.70;;;;;;5118190;27;20041;-78
2022/06/18 07:57:50;;;;;;;4.80;1.73;;;21.50;74.80;;;;;;5135326;27;20046;-78
2022/06/18 08:00:19;;;;;;;3.25;1.23;;;21.50;73.90;;;;;;5135404;27;20031;-79
2022/06/18 08:02:46;;;;;;;4.38;2.15;;;21.60;73.90;;;;;;5135565;27;20042;-78
2022/06/18 08:05:18;;;;;;;5.25;1.98;;;21.60;73.80;;;;;;5135126;27;20061;-78
2022/06/18 08:07:44;;;;;;;3.47;1.73;;;21.60;73.90;;;;;;5135660;27;20062;-77
2022/06/18 08:10:10;;;;;;;3.63;2.00;;;21.70;74.20;;;;;;5117913;27;20031;-80
2022/06/18 08:12:36;;;;;;;3.25;1.80;;;21.70;74.40;;;;;;5117804;27;20031;-79
2022/06/18 08:15:04;;;;;;;3.80;2.05;;;21.80;73.60;;;;;;5118078;27;20082;-80
2022/06/18 08:17:29;;;;;;;3.17;2.00;;;21.70;73.90;;;;;;5117938;27;20047;-77
2022/06/18 08:19:55;;;;;;;6.30;2.15;;;21.70;74.20;;;;;;5117799;27;20103;-80
2022/06/18 08:22:22;;;;;;;4.10;2.35;;;21.80;74.50;;;;;;5100994;27;20043;-79
2022/06/18 08:24:48;;;;;;;4.82;2.05;;;21.80;74.50;;;;;;5117746;27;20478;-79
2022/06/18 08:27:15;;;;;;;5.07;1.88;;;21.70;74.20;;;;;;5117539;27;20118;-79
2022/06/18 08:29:41;;;;;;;6.25;1.95;;;21.80;74.10;;;;;;5117577;27;20039;-79
2022/06/18 08:32:08;;;;;;;3.42;1.63;;;21.80;73.50;;;;;;5117820;27;20462;-79
2022/06/18 08:34:33;;;;;;;4.18;1.83;;;21.80;73.40;;;;;;5134815;27;20376;-82
2022/06/18 08:37:02;;;;;;;4.30;1.38;;;21.90;73.10;;;;;;5117719;27;20046;-79
2022/06/18 08:39:28;;;;;;;2.42;1.75;;;21.90;72.60;;;;;;5117463;27;20043;-81
2022/06/18 08:42:04;;;;;;;3.38;1.65;;;21.90;72.40;;;;;;5100852;27;20206;-80
2022/06/18 08:44:57;;;;;;;3.08;1.40;;;22.00;72.10;;;;;;5134514;27;20471;-82
2022/06/18 08:47:41;;;;;;;3.38;1.60;;;22.00;71.60;;;;;;5134008;27;20035;-80
2022/06/18 08:50:39;;;;;;;4.68;1.77;;;22.10;71.80;;;;;;5134360;27;20076;-79
2022/06/18 08:53:23;;;;;;;3.50;1.70;;;22.20;71.30;;;;;;5134522;27;20057;-80
2022/06/18 08:56:10;;;;;;;3.70;1.98;;;22.20;71.60;;;;;;5117333;27;20047;-83
2022/06/18 08:59:17;;;;;;;4.05;1.80;;;22.40;71.40;;;;;;5117269;27;20039;-82
2022/06/18 09:01:49;;;;;;;5.13;2.53;;;22.40;71.70;;;;;;5103301;27;20051;-83
2022/06/18 09:04:52;;;;;;;4.30;2.17;;;22.40;71.60;;;;;;5116737;27;20047;-84
2022/06/18 09:07:37;;;;;;;5.00;1.60;;;22.30;71.80;;;;;;5134309;27;20046;-83
2022/06/18 09:10:29;;;;;;;5.38;1.92;;;22.40;72.20;;;;;;5134084;27;20043;-82
2022/06/18 09:13:04;;;;;;;3.97;2.00;;;22.40;72.40;;;;;;5134670;27;20078;-83
2022/06/18 09:15:37;;;;;;;3.22;1.60;;;22.40;72.00;;;;;;5134126;27;20041;-83
2022/06/18 09:18:07;;;;;;;3.10;1.67;;;22.40;72.20;;;;;;5134103;27;20498;-83
2022/06/18 09:20:39;;;;;;;4.68;2.00;;;22.50;71.60;;;;;;5116845;27;20092;-83
2022/06/18 09:23:13;;;;;;;4.00;1.90;;;22.50;71.40;;;;;;5133468;27;20058;-83
2022/06/18 09:25:43;;;;;;;5.90;1.52;;;22.50;71.20;;;;;;5133623;27;20129;-83
2022/06/18 09:28:19;;;;;;;1.83;1.15;;;22.50;71.50;;;;;;5117506;27;20070;-82
2022/06/18 09:31:09;;;;;;;2.47;1.48;;;22.60;71.10;;;;;;5133932;27;20100;-83
2022/06/18 09:33:49;;;;;;;3.38;1.25;;;22.70;70.50;;;;;;5134382;27;20043;-82
2022/06/18 09:36:33;;;;;;;4.38;1.55;;;22.90;70.10;;;;;;5133171;27;20054;-80
2022/06/18 09:39:15;;;;;;;3.50;1.30;;;22.90;69.80;;;;;;5132943;27;20043;-82
2022/06/18 09:42:00;;;;;;;3.40;1.42;;;23.00;69.10;;;;;;5132959;27;20175;-84
2022/06/18 09:44:50;;;;;;;2.88;1.52;;;23.20;68.70;;;;;;5133016;27;20035;-84
2022/06/18 09:47:22;;;;;;;2.63;1.40;;;23.30;69.10;;;;;;5132840;27;20428;-81
2022/06/18 09:49:48;;;;;;;5.47;1.73;;;23.40;68.50;;;;;;5132692;27;20039;-83
2022/06/18 09:52:22;;;;;;;4.18;1.98;;;23.60;68.00;;;;;;5115649;27;20031;-83
2022/06/18 09:54:53;;;;;;;9.15;2.33;;;23.70;67.60;;;;;;5133127;27;20062;-85
2022/06/18 09:57:23;;;;;;;6.10;2.03;;;23.80;67.20;;;;;;5132621;27;20042;-83
2022/06/18 10:00:03;;;;;;;4.07;1.73;;;23.90;67.10;;;;;;5132053;27;20031;-82
2022/06/18 10:02:31;;;;;;;4.35;1.52;;;24.00;66.20;;;;;;5132648;28;20043;-81
2022/06/18 10:07:48;;;;;;;1.95;1.50;;;24.20;65.90;;;;;;5118540;28;20031;-80
2022/06/18 10:10:20;;;;;;;3.78;1.58;;;24.30;65.60;;;;;;5115462;28;20043;-81
2022/06/18 10:12:55;;;;;;;3.22;1.05;;;24.40;65.60;;;;;;5132831;28;20070;-81
2022/06/18 10:15:23;;;;;;;4.30;1.20;;;24.50;65.90;;;;;;5132455;28;20032;-81
2022/06/18 10:18:16;;;;;;;3.75;1.25;;;24.60;64.30;;;;;;5132745;28;20043;-79
2022/06/18 10:21:00;;;;;;;2.67;0.88;;;24.60;63.40;;;;;;5115570;28;20169;-79
2022/06/18 10:23:45;;;;;;;1.50;1.10;;;24.60;61.90;;;;;;5115256;28;20503;-79
2022/06/18 10:26:59;;;;;;;1.90;1.10;;;24.60;61.90;;;;;;5132366;28;20087;-80
2022/06/18 10:29:34;;;;;;;1.95;1.10;;;24.70;62.40;;;;;;5114919;27;20051;-79
2022/06/18 10:32:21;;;;;;;3.05;1.10;;;24.80;62.30;;;;;;5132383;28;20071;-81
2022/06/18 10:35:07;;;;;;;3.00;0.98;;;24.90;62.30;;;;;;5115184;28;20131;-78
2022/06/18 10:37:51;;;;;;;2.33;1.23;;;25.00;61.70;;;;;;5115226;28;20071;-80
2022/06/18 10:40:44;;;;;;;4.80;1.48;;;25.00;61.00;;;;;;5132518;28;20449;-79
2022/06/18 10:43:34;;;;;;;3.43;1.03;;;25.10;61.30;;;;;;5132279;28;20092;-79
2022/06/18 10:46:06;;;;;;;4.90;1.27;;;25.20;59.40;;;;;;5133743;28;20123;-81
2022/06/18 10:48:33;;;;;;;2.35;1.05;;;25.20;59.70;;;;;;5132782;28;20145;-79
2022/06/18 10:51:01;;;;;;;2.40;1.20;;;25.30;59.80;;;;;;5115509;28;20036;-80
2022/06/18 10:53:30;;;;;;;1.65;0.93;;;25.30;59.30;;;;;;5116914;28;20067;-79
2022/06/18 10:56:03;;;;;;;3.75;1.17;;;25.40;59.00;;;;;;5137600;28;20421;-78
2022/06/18 10:58:29;;;;;;;3.20;1.42;;;25.40;59.00;;;;;;5134052;28;20039;-79
2022/06/18 11:01:02;;;;;;;2.38;1.00;;;25.60;58.70;;;;;;5133917;28;20077;-78
2022/06/18 11:03:33;;;;;;;3.33;0.98;;;25.60;57.60;;;;;;5132785;28;20062;-79
2022/06/18 11:06:10;;;;;;;2.80;1.00;;;25.70;57.90;;;;;;5131740;28;20043;-80
2022/06/18 11:08:37;;;;;;;7.03;1.52;;;25.80;58.10;;;;;;5115063;28;20118;-80
2022/06/18 11:11:08;;;;;;;6.53;1.17;;;25.90;58.30;;;;;;5118087;27;20039;-81
2022/06/18 11:13:38;;;;;;;3.95;1.27;;;25.90;57.40;;;;;;5118740;27;20078;-80
2022/06/18 11:16:19;;;;;;;4.40;1.55;;;25.90;56.40;;;;;;5135594;27;20039;-80
2022/06/18 11:18:56;;;;;;;4.13;1.40;;;25.80;56.50;;;;;;5118652;27;20076;-80
2022/06/18 11:21:24;;;;;;;2.47;1.00;;;25.80;56.90;;;;;;5135622;27;20039;-80
2022/06/18 11:24:01;;;;;;;3.25;1.50;;;25.90;57.00;;;;;;5135268;27;20055;-81
2022/06/18 11:26:28;;;;;;;5.70;1.50;;;26.00;56.80;;;;;;5118554;27;20065;-80
2022/06/18 11:28:59;;;;;;;4.88;1.25;;;26.10;56.30;;;;;;5118546;27;20118;-80
2022/06/18 11:31:31;;;;;;;3.28;1.17;;;26.10;56.50;;;;;;5135467;27;20087;-81
2022/06/18 11:34:04;;;;;;;2.70;1.25;;;26.10;57.00;;;;;;5135448;27;20442;-80
2022/06/18 11:36:49;;;;;;;3.35;1.13;;;26.10;56.00;;;;;;5135531;27;20043;-80
2022/06/18 11:39:35;;;;;;;3.78;1.02;;;26.20;57.10;;;;;;5118098;27;20065;-80
2022/06/18 11:42:26;;;;;;;4.47;1.30;;;26.30;56.10;;;;;;5135234;27;20038;-80
2022/06/18 11:45:14;;;;;;;5.82;1.83;;;26.40;55.20;;;;;;5134993;27;20039;-80
2022/06/18 11:47:49;;;;;;;2.60;1.00;;;26.30;53.50;;;;;;5117938;27;20039;-80
2022/06/18 11:50:18;;;;;;;3.72;1.15;;;26.20;53.70;;;;;;5135359;27;20095;-80
2022/06/18 11:53:05;;;;;;;2.58;1.10;;;26.20;55.10;;;;;;5134965;27;20035;-80
2022/06/18 11:55:44;;;;;;;4.30;1.35;;;26.20;55.60;;;;;;5134890;27;20039;-80
2022/06/18 11:58:13;;;;;;;3.92;1.77;;;26.20;54.40;;;;;;5134852;27;20043;-80
2022/06/18 12:01:08;;;;;;;3.92;1.20;;;26.20;53.90;;;;;;5135187;27;20031;-81
2022/06/18 12:03:56;;;;;;;3.17;1.20;;;26.20;54.60;;;;;;5117516;27;20039;-80
2022/06/18 12:06:45;;;;;;;4.22;1.35;;;26.30;54.60;;;;;;5117538;27;20038;-80
2022/06/18 12:09:12;;;;;;;5.15;1.40;;;26.30;54.00;;;;;;5117588;27;20031;-80
2022/06/18 12:11:56;;;;;;;4.70;1.60;;;26.30;54.20;;;;;;5134624;27;20039;-80
2022/06/18 12:14:32;;;;;;;5.07;1.35;;;26.30;54.10;;;;;;5134484;27;20050;-81
2022/06/18 12:17:02;;;;;;;5.63;1.50;;;26.30;53.90;;;;;;5117711;27;20062;-80
2022/06/18 12:19:44;;;;;;;3.05;1.52;;;26.30;54.20;;;;;;5134557;27;20130;-80
2022/06/18 12:22:26;;;;;;;6.68;1.92;;;26.20;53.40;;;;;;5116466;27;20122;-80
2022/06/18 12:24:56;;;;;;;5.00;1.50;;;26.20;53.40;;;;;;5134316;27;20051;-81
2022/06/18 12:27:26;;;;;;;9.52;1.75;;;26.30;54.70;;;;;;5134476;27;20479;-81
2022/06/18 12:30:07;;;;;;;6.70;1.55;;;26.40;54.80;;;;;;5117413;27;20364;-80
2022/06/18 12:32:47;;;;;;;5.35;1.92;;;26.40;54.00;;;;;;5117086;27;20031;-80
2022/06/18 12:35:39;;;;;;;7.57;1.90;;;26.40;53.90;;;;;;5117182;27;20046;-81
2022/06/18 12:38:31;;;;;;;6.00;1.55;;;26.40;54.00;;;;;;5134094;27;20459;-81
2022/06/18 12:41:15;;;;;;;5.95;1.85;;;26.40;54.50;;;;;;5116738;27;20047;-81
2022/06/18 12:44:02;;;;;;;8.65;2.97;;;26.30;54.20;;;;;;5133920;27;20043;-81
2022/06/18 12:46:36;;;;;;;10.73;2.13;;;26.30;55.20;;;;;;5116819;27;20514;-81
2022/06/18 12:49:12;;;;;;;7.43;1.95;;;26.20;54.00;;;;;;5116719;27;20039;-80
2022/06/18 12:51:52;;;;;;;6.93;2.22;;;26.20;54.80;;;;;;5134028;27;20421;-81
2022/06/18 12:54:25;;;;;;;9.13;2.95;;;26.20;55.30;;;;;;5117012;27;20491;-80
2022/06/18 12:57:17;;;;;;;10.82;2.33;;;26.20;54.40;;;;;;5116806;27;20364;-81
2022/06/18 13:00:03;;;;;;;6.75;1.95;;;26.10;54.00;;;;;;5116718;27;20491;-81
2022/06/18 13:02:51;;;;;;;7.93;2.33;;;26.10;53.60;;;;;;5133857;27;20514;-81
2022/06/18 13:05:29;;;;;;;7.57;1.88;;;25.90;54.00;;;;;;5133675;27;20477;-81
2022/06/18 13:08:00;;;;;;;6.53;2.67;;;25.60;53.50;;;;;;5116423;27;20071;-80
2022/06/18 13:10:36;;;;;;;8.50;2.30;;;25.20;53.80;;;;;;5116566;27;20035;-81
2022/06/18 13:13:38;;;;;;;9.50;2.08;;;24.90;55.80;;;;;;5133458;27;20091;-80
2022/06/18 13:16:22;;;;;;;8.82;1.85;;;24.80;56.30;;;;;;5018178;28;20151;-81